createdAt,value
2019-03-13T00:00:50.768Z,6.10
2019-03-13T00:03:20.028Z,6.10
2019-03-13T00:05:49.020Z,6.00
2019-03-13T00:08:18.072Z,5.90
2019-03-13T00:10:47.777Z,5.60
2019-03-13T00:13:17.412Z,5.30
2019-03-13T00:15:49.616Z,5.00
2019-03-13T00:18:17.380Z,5.00
2019-03-13T00:20:46.276Z,4.90
2019-03-13T00:23:16.837Z,4.70
2019-03-13T00:25:45.760Z,4.70
2019-03-13T00:28:14.911Z,4.70
2019-03-13T00:30:44.772Z,4.50
2019-03-13T00:33:13.616Z,4.50
2019-03-13T00:35:42.724Z,4.60
2019-03-13T00:38:11.729Z,4.60
2019-03-13T00:40:40.479Z,4.60
2019-03-13T00:43:09.518Z,4.60
2019-03-13T00:45:38.800Z,4.50
2019-03-13T00:48:07.567Z,4.50
2019-03-13T00:50:40.332Z,4.60
2019-03-13T00:53:11.364Z,4.60
2019-03-13T00:55:40.872Z,4.60
2019-03-13T00:58:09.654Z,4.60
2019-03-13T01:01:01.316Z,4.60
2019-03-13T01:03:49.983Z,4.60
2019-03-13T01:06:30.928Z,4.60
2019-03-13T01:08:59.864Z,4.60
2019-03-13T01:11:29.724Z,4.70
2019-03-13T01:13:58.909Z,4.60
2019-03-13T01:16:28.317Z,4.60
2019-03-13T01:18:57.120Z,4.60
2019-03-13T01:21:26.057Z,4.60
2019-03-13T01:23:55.606Z,4.50
2019-03-13T01:26:24.421Z,4.50
2019-03-13T01:28:53.167Z,4.60
2019-03-13T01:31:34.918Z,4.60
2019-03-13T01:34:17.683Z,4.60
2019-03-13T01:36:46.896Z,4.60
2019-03-13T01:39:15.913Z,4.60
2019-03-13T01:41:46.027Z,4.60
2019-03-13T01:44:14.987Z,4.60
2019-03-13T01:46:43.809Z,4.60
2019-03-13T01:49:12.614Z,4.60
2019-03-13T01:51:42.800Z,4.60
2019-03-13T01:54:11.527Z,4.50
2019-03-13T01:56:40.756Z,4.50
2019-03-13T01:59:09.692Z,4.40
2019-03-13T02:01:38.944Z,4.40
2019-03-13T02:04:08.019Z,4.50
2019-03-13T02:06:37.436Z,4.30
2019-03-13T02:09:09.536Z,4.30
2019-03-13T02:11:39.008Z,4.20
2019-03-13T02:14:08.105Z,4.20
2019-03-13T02:16:36.870Z,4.20
2019-03-13T02:19:05.804Z,4.20
2019-03-13T02:21:34.665Z,4.20
2019-03-13T02:24:03.449Z,4.20
2019-03-13T02:26:32.564Z,4.20
2019-03-13T02:29:01.636Z,4.30
2019-03-13T02:31:30.462Z,4.20
2019-03-13T02:33:59.277Z,4.20
2019-03-13T02:36:28.325Z,4.10
2019-03-13T02:38:57.736Z,4.20
2019-03-13T02:41:27.273Z,4.20
2019-03-13T02:43:56.477Z,4.30
2019-03-13T02:46:25.273Z,3.80
2019-03-13T02:48:54.690Z,4.30
2019-03-13T02:51:24.804Z,4.30
2019-03-13T02:53:53.718Z,4.30
2019-03-13T02:56:22.616Z,4.40
2019-03-13T02:58:51.381Z,4.30
2019-03-13T03:01:38.292Z,4.40
2019-03-13T03:04:10.024Z,4.30
2019-03-13T03:06:39.138Z,4.40
2019-03-13T03:09:09.036Z,4.40
2019-03-13T03:11:38.940Z,4.40
2019-03-13T03:14:07.806Z,4.50
2019-03-13T03:16:36.594Z,4.50
2019-03-13T03:19:05.490Z,4.50
2019-03-13T03:21:34.409Z,4.50
2019-03-13T03:24:03.230Z,4.50
2019-03-13T03:26:34.344Z,4.50
2019-03-13T03:29:03.184Z,4.60
2019-03-13T03:31:31.931Z,4.60
2019-03-13T03:34:05.345Z,4.50
2019-03-13T03:36:34.970Z,4.50
2019-03-13T03:39:05.272Z,4.40
2019-03-13T03:41:34.058Z,4.40
2019-03-13T03:44:03.460Z,4.40
2019-03-13T03:46:32.664Z,4.50
2019-03-13T03:49:01.828Z,4.40
2019-03-13T03:51:30.752Z,4.50
2019-03-13T03:53:59.556Z,4.60
2019-03-13T03:56:28.404Z,4.60
2019-03-13T03:58:57.716Z,4.60
2019-03-13T04:01:26.897Z,4.50
2019-03-13T04:03:55.726Z,4.50
2019-03-13T04:06:24.952Z,4.70
2019-03-13T04:08:54.255Z,4.70
2019-03-13T04:11:23.115Z,4.70
2019-03-13T04:13:52.302Z,4.70
2019-03-13T04:16:21.422Z,4.70
2019-03-13T04:18:50.228Z,4.80
2019-03-13T04:21:19.350Z,4.80
2019-03-13T04:23:48.246Z,4.80
2019-03-13T04:26:17.540Z,4.90
2019-03-13T04:28:47.298Z,4.90
2019-03-13T04:31:16.182Z,4.90
2019-03-13T04:33:45.337Z,4.90
2019-03-13T04:36:14.689Z,4.80
2019-03-13T04:38:43.477Z,4.90
2019-03-13T04:41:12.388Z,4.80
2019-03-13T04:43:42.184Z,4.90
2019-03-13T04:46:11.439Z,4.50
2019-03-13T04:48:40.337Z,4.90
2019-03-13T04:51:09.291Z,4.80
2019-03-13T04:53:38.284Z,4.80
2019-03-13T04:56:07.260Z,4.70
2019-03-13T04:58:36.422Z,4.80
2019-03-13T05:01:05.360Z,4.90
2019-03-13T05:03:35.408Z,4.90
2019-03-13T05:06:12.888Z,4.90
2019-03-13T05:08:45.764Z,4.80
2019-03-13T05:11:14.912Z,4.90
2019-03-13T05:13:44.272Z,4.90
2019-03-13T05:16:13.351Z,4.80
2019-03-13T05:18:42.073Z,4.80
2019-03-13T05:21:10.995Z,4.80
2019-03-13T05:23:39.787Z,4.90
2019-03-13T05:26:08.865Z,4.90
2019-03-13T05:28:38.103Z,4.70
2019-03-13T05:31:07.886Z,4.70
2019-03-13T05:33:36.964Z,4.70
2019-03-13T05:36:06.614Z,4.70
2019-03-13T05:38:35.360Z,4.70
2019-03-13T05:41:04.323Z,4.70
2019-03-13T05:43:33.390Z,4.80
2019-03-13T05:46:02.616Z,4.80
2019-03-13T05:48:32.983Z,4.90
2019-03-13T05:51:02.864Z,4.80
2019-03-13T05:53:31.701Z,4.80
2019-03-13T05:56:02.999Z,4.90
2019-03-13T05:58:31.911Z,4.80
2019-03-13T06:01:01.243Z,4.90
2019-03-13T06:03:30.184Z,4.90
2019-03-13T06:05:59.104Z,4.90
2019-03-13T06:08:47.141Z,4.90
2019-03-13T06:11:16.165Z,4.90
2019-03-13T06:16:08.920Z,4.90
2019-03-13T06:18:37.703Z,5.10
2019-03-13T06:21:06.450Z,5.10
2019-03-13T06:23:35.646Z,5.10
2019-03-13T06:26:04.543Z,5.10
2019-03-13T06:28:34.438Z,5.10
2019-03-13T06:31:04.581Z,5.00
2019-03-13T06:33:33.468Z,5.00
2019-03-13T06:36:02.875Z,4.90
2019-03-13T06:38:32.819Z,4.90
2019-03-13T06:41:01.556Z,5.00
2019-03-13T06:43:30.395Z,4.90
2019-03-13T06:45:59.132Z,4.90
2019-03-13T06:48:27.978Z,5.00
2019-03-13T06:50:57.185Z,5.00
2019-03-13T06:53:25.983Z,5.00
2019-03-13T06:55:55.120Z,5.10
2019-03-13T06:58:33.707Z,5.20
2019-03-13T07:01:13.711Z,5.20
2019-03-13T07:04:00.617Z,5.10
2019-03-13T07:06:47.372Z,5.20
2019-03-13T07:09:27.916Z,5.20
2019-03-13T07:12:15.072Z,5.30
2019-03-13T07:15:04.371Z,5.30
2019-03-13T07:17:37.932Z,5.20
2019-03-13T07:20:36.372Z,5.30
2019-03-13T07:23:33.217Z,5.30
2019-03-13T07:26:11.080Z,5.40
2019-03-13T07:29:11.012Z,5.40
2019-03-13T07:31:37.934Z,5.50
2019-03-13T07:34:18.735Z,5.50
2019-03-13T07:36:56.876Z,5.50
2019-03-13T07:39:40.313Z,5.40
2019-03-13T07:42:16.848Z,5.50
2019-03-13T07:45:03.620Z,5.50
2019-03-13T07:47:58.404Z,5.60
2019-03-13T07:50:49.380Z,5.60
2019-03-13T07:53:40.199Z,5.70
2019-03-13T07:56:31.482Z,5.70
2019-03-13T07:59:14.740Z,5.70
2019-03-13T08:02:17.940Z,5.80
2019-03-13T08:05:04.568Z,5.90
2019-03-13T08:07:40.760Z,5.80
2019-03-13T08:10:30.977Z,5.90
2019-03-13T08:13:11.241Z,5.90
2019-03-13T08:15:56.588Z,6.00
2019-03-13T08:18:43.480Z,5.90
2019-03-13T08:21:31.656Z,5.80
2019-03-13T08:24:25.655Z,5.80
2019-03-13T08:27:01.371Z,5.80
2019-03-13T08:29:52.243Z,5.90
2019-03-13T08:32:49.110Z,5.80
2019-03-13T08:35:39.456Z,6.00
2019-03-13T08:38:20.104Z,6.00
2019-03-13T08:41:07.262Z,5.90
2019-03-13T08:43:55.028Z,5.80
2019-03-13T08:46:43.620Z,5.90
2019-03-13T08:49:30.864Z,5.90
2019-03-13T08:52:10.802Z,5.80
2019-03-13T08:54:57.551Z,5.90
2019-03-13T08:57:57.896Z,5.90
2019-03-13T09:00:32.808Z,5.90
2019-03-13T09:03:14.260Z,6.00
2019-03-13T09:06:18.289Z,6.00
2019-03-13T09:09:15.809Z,6.10
2019-03-13T09:11:56.701Z,6.10
2019-03-13T09:14:45.180Z,6.30
2019-03-13T09:17:29.052Z,6.30
2019-03-13T09:20:22.748Z,6.10
2019-03-13T09:23:12.040Z,6.10
2019-03-13T09:25:58.352Z,6.20
2019-03-13T09:28:44.208Z,6.30
2019-03-13T09:31:26.257Z,6.30
2019-03-13T09:34:17.047Z,6.40
2019-03-13T09:36:59.126Z,6.40
2019-03-13T09:39:39.326Z,6.40
2019-03-13T09:42:14.227Z,6.50
2019-03-13T09:44:56.348Z,6.60
2019-03-13T09:47:53.331Z,6.50
2019-03-13T09:50:53.508Z,6.60
2019-03-13T09:53:50.640Z,6.60
2019-03-13T09:56:44.510Z,7.00
2019-03-13T09:59:43.494Z,6.80
2019-03-13T10:02:28.579Z,6.60
2019-03-13T10:05:22.601Z,6.20
2019-03-13T10:07:56.490Z,6.10
2019-03-13T10:10:42.984Z,6.00
2019-03-13T10:13:22.753Z,6.10
2019-03-13T10:15:57.604Z,6.10
2019-03-13T10:18:46.293Z,6.00
2019-03-13T10:21:52.364Z,6.10
2019-03-13T10:24:52.392Z,6.00
2019-03-13T10:27:31.316Z,6.00
2019-03-13T10:30:22.492Z,6.10
2019-03-13T10:33:08.358Z,6.10
2019-03-13T10:35:55.433Z,6.10
2019-03-13T10:38:55.730Z,6.10
2019-03-13T10:41:41.553Z,6.10
2019-03-13T10:44:20.844Z,6.10
2019-03-13T10:47:19.448Z,6.00
2019-03-13T10:49:58.188Z,6.10
2019-03-13T10:52:39.618Z,6.20
2019-03-13T10:55:40.616Z,6.00
2019-03-13T10:58:27.393Z,5.90
2019-03-13T11:01:15.495Z,5.90
2019-03-13T11:03:54.408Z,5.70
2019-03-13T11:06:33.076Z,5.80
2019-03-13T11:09:16.309Z,5.90
2019-03-13T11:11:55.033Z,6.00
2019-03-13T11:14:49.160Z,6.10
2019-03-13T11:17:46.239Z,6.20
2019-03-13T11:20:23.256Z,6.30
2019-03-13T11:23:10.336Z,6.20
2019-03-13T11:25:49.164Z,6.10
2019-03-13T11:28:26.912Z,6.00
2019-03-13T11:31:17.573Z,6.10
2019-03-13T11:34:05.585Z,6.20
2019-03-13T11:36:41.392Z,6.30
2019-03-13T11:39:32.656Z,6.40
2019-03-13T11:42:11.904Z,6.30
2019-03-13T11:45:03.540Z,6.20
2019-03-13T11:47:57.429Z,6.10
2019-03-13T11:50:37.119Z,6.10
2019-03-13T11:53:14.606Z,6.10
2019-03-13T11:55:56.118Z,6.10
2019-03-13T11:58:50.073Z,5.90
2019-03-13T12:01:31.400Z,6.00
2019-03-13T12:04:25.396Z,6.00
2019-03-13T12:07:06.005Z,6.00
2019-03-13T12:09:57.163Z,5.90
2019-03-13T12:12:37.928Z,6.10
2019-03-13T12:15:27.888Z,6.30
2019-03-13T12:18:02.649Z,6.20
2019-03-13T12:20:45.749Z,6.20
2019-03-13T12:23:36.677Z,6.30
2019-03-13T12:26:19.863Z,6.70
2019-03-13T12:29:07.667Z,7.00
2019-03-13T12:32:01.763Z,7.20
2019-03-13T12:35:08.096Z,7.20
2019-03-13T12:37:48.068Z,7.30
2019-03-13T12:40:46.112Z,7.30
2019-03-13T12:43:32.920Z,7.40
2019-03-13T12:46:29.885Z,7.70
2019-03-13T12:49:06.654Z,7.30
2019-03-13T12:51:44.960Z,7.20
2019-03-13T12:54:36.182Z,7.10
2019-03-13T12:57:42.829Z,7.10
2019-03-13T13:00:26.854Z,6.90
2019-03-13T13:03:13.807Z,6.80
2019-03-13T13:06:02.498Z,6.90
2019-03-13T13:08:53.241Z,6.70
2019-03-13T13:11:50.388Z,6.60
2019-03-13T13:14:28.692Z,6.60
2019-03-13T13:17:25.692Z,6.70
2019-03-13T13:19:54.520Z,6.80
2019-03-13T13:22:24.061Z,6.80
2019-03-13T13:24:52.980Z,7.00
2019-03-13T13:27:21.838Z,7.10
2019-03-13T13:29:51.906Z,7.10
2019-03-13T13:32:20.791Z,7.00
2019-03-13T13:34:51.095Z,6.90
2019-03-13T13:37:19.852Z,6.80
2019-03-13T13:39:48.717Z,6.80
2019-03-13T13:42:17.543Z,6.90
2019-03-13T13:44:46.833Z,6.90
2019-03-13T13:47:15.614Z,7.00
2019-03-13T13:49:55.064Z,7.00
2019-03-13T13:52:16.144Z,6.90
2019-03-13T13:54:45.445Z,6.90
2019-03-13T13:57:15.852Z,6.90
2019-03-13T13:59:44.728Z,7.10
2019-03-13T14:02:13.606Z,7.00
2019-03-13T14:04:42.712Z,7.00
2019-03-13T14:07:13.737Z,6.90
2019-03-13T14:09:43.116Z,6.70
2019-03-13T14:12:12.244Z,6.80
2019-03-13T14:14:42.176Z,6.70
2019-03-13T14:17:11.289Z,6.60
2019-03-13T14:19:40.744Z,6.50
2019-03-13T14:22:09.462Z,6.40
2019-03-13T14:24:38.472Z,6.30
2019-03-13T14:27:14.599Z,6.30
2019-03-13T14:29:38.164Z,6.10
2019-03-13T14:32:07.053Z,6.10
2019-03-13T14:34:36.248Z,6.10
2019-03-13T14:37:05.145Z,6.10
2019-03-13T14:39:34.964Z,6.20
2019-03-13T14:42:03.920Z,6.30
2019-03-13T14:44:33.149Z,6.20
2019-03-13T14:47:01.912Z,6.10
2019-03-13T14:49:31.132Z,6.10
2019-03-13T14:51:59.969Z,6.20
2019-03-13T14:54:28.965Z,6.10
2019-03-13T14:56:58.034Z,6.10
2019-03-13T14:59:27.045Z,6.20
2019-03-13T15:01:55.872Z,6.20
2019-03-13T15:04:24.708Z,6.10
2019-03-13T15:06:53.613Z,6.00
2019-03-13T15:09:22.607Z,5.80
2019-03-13T15:11:51.456Z,5.70
2019-03-13T15:14:20.829Z,5.70
2019-03-13T15:19:39.572Z,5.30
2019-03-13T15:22:08.388Z,5.20
2019-03-13T15:24:37.773Z,5.30
2019-03-13T15:27:07.472Z,5.30
2019-03-13T15:29:36.220Z,5.50
2019-03-13T15:32:05.187Z,5.50
2019-03-13T15:34:34.820Z,5.40
2019-03-13T15:37:04.248Z,5.50
2019-03-13T15:39:33.072Z,5.70
2019-03-13T15:42:02.548Z,5.80
2019-03-13T15:44:31.309Z,5.80
2019-03-13T15:47:00.712Z,5.80
2019-03-13T15:49:29.677Z,5.80
2019-03-13T15:51:58.468Z,5.70
2019-03-13T15:54:27.936Z,5.80
2019-03-13T15:56:56.789Z,5.70
2019-03-13T15:59:25.675Z,5.60
2019-03-13T16:01:54.550Z,5.50
2019-03-13T16:04:23.408Z,5.30
2019-03-13T16:06:52.266Z,5.30
2019-03-13T16:09:21.072Z,5.20
2019-03-13T16:11:49.925Z,5.30
2019-03-13T16:14:19.476Z,5.30
2019-03-13T16:16:48.480Z,5.30
2019-03-13T16:19:17.210Z,5.40
2019-03-13T16:21:46.180Z,5.40
2019-03-13T16:24:15.357Z,5.40
2019-03-13T16:26:44.142Z,5.40
2019-03-13T16:29:12.863Z,5.50
2019-03-13T16:31:41.888Z,5.40
2019-03-13T16:34:10.704Z,5.40
2019-03-13T16:36:39.422Z,5.50
2019-03-13T16:39:08.737Z,5.40
2019-03-13T16:41:37.456Z,5.40
2019-03-13T16:44:07.569Z,5.50
2019-03-13T16:46:37.526Z,5.50
2019-03-13T16:49:08.804Z,5.40
2019-03-13T16:51:37.555Z,5.30
2019-03-13T16:54:06.324Z,5.30
2019-03-13T16:56:35.297Z,5.30
2019-03-13T16:59:04.185Z,5.30
2019-03-13T17:01:33.712Z,5.30
2019-03-13T17:04:02.535Z,5.20
2019-03-13T17:06:31.304Z,5.30
2019-03-13T17:09:00.300Z,5.20
2019-03-13T17:11:29.177Z,5.30
2019-03-13T17:13:58.934Z,5.20
2019-03-13T17:16:28.303Z,5.30
2019-03-13T17:18:57.273Z,5.20
2019-03-13T17:21:26.151Z,5.30
2019-03-13T17:23:54.984Z,5.20
2019-03-13T17:26:23.777Z,5.10
2019-03-13T17:28:52.709Z,5.20
2019-03-13T17:31:21.715Z,5.20
2019-03-13T17:33:50.541Z,5.30
2019-03-13T17:36:19.712Z,5.30
2019-03-13T17:38:48.501Z,5.30
2019-03-13T17:41:17.781Z,5.30
2019-03-13T17:43:46.584Z,5.20
2019-03-13T17:46:15.628Z,5.30
2019-03-13T17:48:44.845Z,5.30
2019-03-13T17:51:14.256Z,5.40
2019-03-13T17:53:42.985Z,5.30
2019-03-13T17:56:11.782Z,5.10
2019-03-13T17:58:41.021Z,5.20
2019-03-13T18:01:10.149Z,5.10
2019-03-13T18:03:39.336Z,5.10
2019-03-13T18:06:08.148Z,5.00
2019-03-13T18:08:37.496Z,5.10
2019-03-13T18:11:07.306Z,5.10
2019-03-13T18:13:37.720Z,5.10
2019-03-13T18:16:06.508Z,5.10
2019-03-13T18:18:35.257Z,5.10
2019-03-13T18:21:04.267Z,5.20
2019-03-13T18:23:34.140Z,5.10
2019-03-13T18:26:03.126Z,5.20
2019-03-13T18:28:32.051Z,5.10
2019-03-13T18:31:02.225Z,5.30
2019-03-13T18:33:31.335Z,5.40
2019-03-13T18:36:00.379Z,5.50
2019-03-13T18:38:29.432Z,5.50
2019-03-13T18:40:58.264Z,5.50
2019-03-13T18:43:27.073Z,5.60
2019-03-13T18:45:55.800Z,5.60
2019-03-13T18:48:30.536Z,5.70
2019-03-13T18:50:59.518Z,5.60
2019-03-13T18:53:28.384Z,5.50
2019-03-13T18:55:57.231Z,5.50
2019-03-13T18:58:26.424Z,5.50
2019-03-13T19:00:58.092Z,5.50
2019-03-13T19:03:25.736Z,5.50
2019-03-13T19:05:55.741Z,5.60
2019-03-13T19:08:26.986Z,5.60
2019-03-13T19:10:56.724Z,5.70
2019-03-13T19:13:25.540Z,5.70
2019-03-13T19:15:54.323Z,5.60
2019-03-13T19:18:23.092Z,5.70
2019-03-13T19:20:53.880Z,5.60
2019-03-13T19:23:22.589Z,5.70
2019-03-13T19:25:51.379Z,5.80
2019-03-13T19:28:20.599Z,5.80
2019-03-13T19:30:49.639Z,5.80
2019-03-13T19:33:18.716Z,5.90
2019-03-13T19:35:47.455Z,5.90
2019-03-13T19:38:16.417Z,5.90
2019-03-13T19:40:45.340Z,6.10
2019-03-13T19:43:14.228Z,6.20
2019-03-13T19:45:43.125Z,6.20
2019-03-13T19:48:12.408Z,6.20
2019-03-13T19:50:41.286Z,6.20
2019-03-13T19:53:10.275Z,6.10
2019-03-13T19:55:39.186Z,6.20
2019-03-13T19:58:08.193Z,6.20
2019-03-13T20:00:37.121Z,6.20
2019-03-13T20:03:07.175Z,6.30
2019-03-13T20:05:45.357Z,6.30
2019-03-13T20:08:06.516Z,6.20
2019-03-13T20:10:35.501Z,6.20
2019-03-13T20:13:04.389Z,6.30
2019-03-13T20:15:33.549Z,6.20
2019-03-13T20:18:02.380Z,6.20
2019-03-13T20:20:31.342Z,6.20
2019-03-13T20:23:00.872Z,6.20
2019-03-13T20:25:29.668Z,6.20
2019-03-13T20:27:58.661Z,6.20
2019-03-13T20:30:27.696Z,6.20
2019-03-13T20:32:56.611Z,6.20
2019-03-13T20:35:25.528Z,6.30
2019-03-13T20:37:54.515Z,6.30
2019-03-13T20:40:24.030Z,6.20
2019-03-13T20:42:53.318Z,6.10
2019-03-13T20:45:25.797Z,6.30
2019-03-13T20:47:54.790Z,6.20
2019-03-13T20:50:35.764Z,6.20
2019-03-13T20:52:54.871Z,6.30
2019-03-13T20:55:24.536Z,6.30
2019-03-13T20:57:53.565Z,6.30
2019-03-13T21:00:23.160Z,6.40
2019-03-13T21:02:52.356Z,6.40
2019-03-13T21:05:22.872Z,6.30
2019-03-13T21:07:52.473Z,6.30
2019-03-13T21:10:21.744Z,6.40
2019-03-13T21:12:50.993Z,6.40
2019-03-13T21:15:19.844Z,6.30
2019-03-13T21:17:49.759Z,6.30
2019-03-13T21:20:19.039Z,6.30
2019-03-13T21:22:48.088Z,6.30
2019-03-13T21:25:17.582Z,6.40
2019-03-13T21:27:48.042Z,6.30
2019-03-13T21:30:19.368Z,6.30
2019-03-13T21:32:48.270Z,6.40
2019-03-13T21:35:17.172Z,6.30
2019-03-13T21:37:46.519Z,6.30
2019-03-13T21:40:16.038Z,6.30
2019-03-13T21:42:45.236Z,6.30
2019-03-13T21:45:22.238Z,6.20
2019-03-13T21:47:46.713Z,6.30
2019-03-13T21:50:15.724Z,6.30
2019-03-13T21:52:44.761Z,6.10
2019-03-13T21:55:14.155Z,6.10
2019-03-13T21:57:43.392Z,6.00
2019-03-13T22:00:20.269Z,5.90
2019-03-13T22:02:49.185Z,5.90
2019-03-13T22:05:25.799Z,5.80
2019-03-13T22:07:51.345Z,5.90
2019-03-13T22:10:20.493Z,5.80
2019-03-13T22:12:49.348Z,5.80
2019-03-13T22:15:18.756Z,5.70
2019-03-13T22:17:47.990Z,5.70
2019-03-13T22:20:17.291Z,5.70
2019-03-13T22:22:46.371Z,5.60
2019-03-13T22:25:15.399Z,5.70
2019-03-13T22:27:44.256Z,5.80
2019-03-13T22:30:16.760Z,5.70
2019-03-13T22:32:45.743Z,5.70
2019-03-13T22:35:14.664Z,5.60
2019-03-13T22:37:43.564Z,5.80
2019-03-13T22:40:12.481Z,5.80
2019-03-13T22:42:41.617Z,5.80
2019-03-13T22:45:11.092Z,5.70
2019-03-13T22:47:43.049Z,5.80
2019-03-13T22:50:15.254Z,5.90
2019-03-13T22:52:44.073Z,6.00
2019-03-13T22:55:13.328Z,5.90
2019-03-13T22:57:42.132Z,6.00
2019-03-13T23:00:22.068Z,5.90
2019-03-13T23:02:51.111Z,5.80
2019-03-13T23:05:20.307Z,5.70
2019-03-13T23:07:50.391Z,5.70
2019-03-13T23:10:29.999Z,5.70
2019-03-13T23:12:59.037Z,5.70
2019-03-13T23:15:27.840Z,5.70
2019-03-13T23:17:56.795Z,5.70
2019-03-13T23:20:26.603Z,5.70
2019-03-13T23:22:55.503Z,5.80
2019-03-13T23:25:24.369Z,5.90
2019-03-13T23:27:53.356Z,5.90
2019-03-13T23:30:22.570Z,5.80
2019-03-13T23:32:51.756Z,5.80
2019-03-13T23:35:20.539Z,5.90
2019-03-13T23:37:49.551Z,5.80
2019-03-13T23:40:18.291Z,5.70
2019-03-13T23:42:47.504Z,5.60
2019-03-13T23:45:16.449Z,5.70
2019-03-13T23:47:45.480Z,5.60
2019-03-13T23:50:14.358Z,5.60
2019-03-13T23:52:43.488Z,5.60
2019-03-13T23:55:12.692Z,5.60
2019-03-13T23:57:42.784Z,5.60
